createdAt,value
2022-12-11T00:02:02.986Z,34.90
2022-12-11T00:04:29.656Z,36.75
2022-12-11T00:06:56.218Z,33.67
2022-12-11T00:09:23.071Z,34.85
2022-12-11T00:11:49.633Z,33.67
2022-12-11T00:14:16.258Z,30.75
2022-12-11T00:16:42.975Z,31.48
2022-12-11T00:19:09.489Z,31.88
2022-12-11T00:21:36.089Z,28.08
2022-12-11T00:24:02.617Z,29.20
2022-12-11T00:26:29.193Z,26.25
2022-12-11T00:28:57.089Z,25.70
2022-12-11T00:31:24.113Z,23.45
2022-12-11T00:33:51.289Z,23.35
2022-12-11T00:36:20.529Z,23.33
2022-12-11T00:38:47.863Z,25.15
2022-12-11T00:41:15.280Z,23.98
2022-12-11T00:43:41.788Z,22.27
2022-12-11T00:46:08.603Z,23.75
2022-12-11T00:48:35.148Z,24.17
2022-12-11T00:51:01.811Z,22.10
2022-12-11T00:53:29.319Z,21.70
2022-12-11T00:55:55.834Z,21.88
2022-12-11T00:58:23.016Z,24.50
2022-12-11T01:00:51.978Z,25.30
2022-12-11T01:03:18.712Z,29.63
2022-12-11T01:05:55.460Z,26.45
2022-12-11T01:08:22.127Z,27.48
2022-12-11T01:10:48.946Z,23.88
2022-12-11T01:13:15.873Z,26.35
2022-12-11T01:15:45.138Z,24.27
2022-12-11T01:18:13.331Z,25.25
2022-12-11T01:20:42.380Z,27.17
2022-12-11T01:23:10.664Z,26.80
2022-12-11T01:25:40.182Z,29.08
2022-12-11T01:28:06.784Z,26.05
2022-12-11T01:30:33.415Z,25.38
2022-12-11T01:33:00.823Z,28.38
2022-12-11T01:35:27.759Z,27.65
2022-12-11T01:37:54.265Z,26.83
2022-12-11T01:40:21.719Z,28.63
2022-12-11T01:42:48.365Z,27.08
2022-12-11T01:45:28.931Z,27.25
2022-12-11T01:48:05.653Z,26.75
2022-12-11T01:50:35.066Z,26.52
2022-12-11T01:53:02.534Z,26.17
2022-12-11T01:55:29.020Z,27.88
2022-12-11T01:57:55.614Z,28.88
2022-12-11T02:00:22.121Z,25.50
2022-12-11T02:02:48.812Z,26.42
2022-12-11T02:05:15.502Z,26.65
2022-12-11T02:07:54.148Z,26.88
2022-12-11T02:10:23.523Z,25.10
2022-12-11T02:12:53.310Z,27.80
2022-12-11T02:15:28.471Z,27.50
2022-12-11T02:18:45.394Z,27.33
2022-12-11T02:21:26.554Z,27.77
2022-12-11T02:26:47.358Z,23.83
2022-12-11T02:29:20.149Z,28.35
2022-12-11T02:32:27.202Z,28.67
2022-12-11T02:35:04.739Z,30.13
2022-12-11T02:37:32.156Z,27.67
2022-12-11T02:39:58.704Z,27.92
2022-12-11T02:42:28.286Z,28.40
2022-12-11T02:44:56.832Z,28.75
2022-12-11T02:47:24.235Z,28.48
2022-12-11T02:49:52.006Z,28.13
2022-12-11T02:52:21.106Z,29.90
2022-12-11T02:54:49.001Z,28.88
2022-12-11T02:57:22.188Z,26.60
2022-12-11T02:59:48.741Z,26.67
2022-12-11T03:02:16.594Z,27.17
2022-12-11T03:04:45.294Z,25.88
2022-12-11T03:07:18.733Z,27.35
2022-12-11T03:09:47.382Z,28.30
2022-12-11T03:12:18.862Z,26.08
2022-12-11T03:14:45.577Z,27.40
2022-12-11T03:17:14.217Z,26.92
2022-12-11T03:19:53.416Z,27.10
2022-12-11T03:22:36.158Z,27.67
2022-12-11T03:25:07.866Z,26.30
2022-12-11T03:27:45.535Z,26.88
2022-12-11T03:30:16.330Z,26.48
2022-12-11T03:32:51.968Z,27.50
2022-12-11T03:35:22.459Z,27.30
2022-12-11T03:37:49.756Z,26.13
2022-12-11T03:40:17.741Z,26.75
2022-12-11T03:42:45.901Z,26.27
2022-12-11T03:45:13.198Z,26.42
2022-12-11T03:47:41.547Z,27.08
2022-12-11T03:50:10.059Z,25.98
2022-12-11T03:52:44.009Z,25.10
2022-12-11T03:55:14.120Z,26.05
2022-12-11T03:57:40.734Z,24.88
2022-12-11T04:00:10.612Z,25.88
2022-12-11T04:02:40.854Z,25.77
2022-12-11T04:05:08.316Z,26.98
2022-12-11T04:07:35.184Z,28.13
2022-12-11T04:10:03.904Z,27.98
2022-12-11T04:12:30.486Z,25.73
2022-12-11T04:15:02.852Z,28.02
2022-12-11T04:17:56.829Z,25.75
2022-12-11T04:20:42.421Z,27.25
2022-12-11T04:23:33.415Z,26.52
2022-12-11T04:26:06.903Z,26.88
2022-12-11T04:28:33.786Z,25.75
2022-12-11T04:31:01.022Z,26.48
2022-12-11T04:33:28.095Z,25.60
2022-12-11T04:35:55.035Z,22.88
2022-12-11T04:38:21.789Z,24.77
2022-12-11T04:40:48.525Z,25.05
2022-12-11T04:43:15.229Z,25.90
2022-12-11T04:45:42.027Z,25.27
2022-12-11T04:48:08.717Z,25.77
2022-12-11T04:50:35.447Z,25.83
2022-12-11T04:53:02.151Z,25.95
2022-12-11T04:55:28.778Z,26.30
2022-12-11T04:57:55.950Z,24.63
2022-12-11T05:00:22.913Z,24.80
2022-12-11T05:02:49.585Z,24.35
2022-12-11T05:05:16.279Z,26.10
2022-12-11T05:07:43.453Z,26.25
2022-12-11T05:10:10.596Z,24.65
2022-12-11T05:12:37.404Z,23.08
2022-12-11T05:15:04.395Z,23.67
2022-12-11T05:17:31.113Z,24.40
2022-12-11T05:19:57.776Z,24.63
2022-12-11T05:22:24.518Z,24.23
2022-12-11T05:24:51.292Z,24.35
2022-12-11T05:27:18.024Z,25.10
2022-12-11T05:29:44.752Z,22.17
2022-12-11T05:32:11.471Z,25.05
2022-12-11T05:34:38.266Z,22.88
2022-12-11T05:37:05.032Z,24.58
2022-12-11T05:39:31.751Z,24.75
2022-12-11T05:41:58.439Z,21.80
2022-12-11T05:44:25.866Z,22.85
2022-12-11T05:46:52.668Z,24.83
2022-12-11T05:49:20.130Z,23.13
2022-12-11T05:51:47.313Z,23.17
2022-12-11T05:54:14.166Z,22.77
2022-12-11T05:56:42.976Z,24.27
2022-12-11T05:59:10.133Z,23.60
2022-12-11T06:01:40.252Z,23.67
2022-12-11T06:04:09.244Z,23.33
2022-12-11T06:06:36.366Z,23.70
2022-12-11T06:09:05.004Z,23.92
2022-12-11T06:11:32.993Z,22.95
2022-12-11T06:14:01.614Z,23.10
2022-12-11T06:16:28.365Z,23.90
2022-12-11T06:18:58.250Z,23.50
2022-12-11T06:21:27.436Z,22.50
2022-12-11T06:23:58.241Z,21.70
2022-12-11T06:26:29.058Z,22.55
2022-12-11T06:28:55.879Z,21.60
2022-12-11T06:31:22.612Z,22.30
2022-12-11T06:33:49.567Z,21.65
2022-12-11T06:36:18.683Z,22.23
2022-12-11T06:38:45.912Z,23.02
2022-12-11T06:41:12.912Z,23.10
2022-12-11T06:43:40.311Z,20.02
2022-12-11T06:46:15.208Z,21.25
2022-12-11T06:48:42.786Z,22.00
2022-12-11T06:51:14.859Z,22.27
2022-12-11T06:53:41.641Z,21.42
2022-12-11T06:56:13.307Z,23.60
2022-12-11T06:58:40.836Z,22.45
2022-12-11T07:01:19.712Z,20.85
2022-12-11T07:03:49.039Z,22.58
2022-12-11T07:06:16.209Z,22.80
2022-12-11T07:08:43.537Z,23.42
2022-12-11T07:11:14.480Z,23.05
2022-12-11T07:13:44.411Z,22.83
2022-12-11T07:16:13.051Z,22.77
2022-12-11T07:18:41.448Z,22.52
2022-12-11T07:21:09.987Z,24.02
2022-12-11T07:23:36.721Z,21.90
2022-12-11T07:26:08.094Z,23.42
2022-12-11T07:28:39.518Z,21.33
2022-12-11T07:31:11.638Z,21.92
2022-12-11T07:33:40.475Z,22.50
2022-12-11T07:36:09.419Z,22.73
2022-12-11T07:38:36.710Z,20.48
2022-12-11T07:41:05.342Z,22.27
2022-12-11T07:43:33.467Z,20.80
2022-12-11T07:46:05.280Z,23.33
2022-12-11T07:48:32.273Z,21.52
2022-12-11T07:51:17.409Z,20.70
2022-12-11T07:53:49.288Z,21.60
2022-12-11T07:56:17.652Z,20.20
2022-12-11T07:58:46.561Z,20.45
2022-12-11T08:01:19.221Z,22.35
2022-12-11T08:03:46.228Z,21.55
2022-12-11T08:06:13.118Z,21.60
2022-12-11T08:08:41.346Z,20.20
2022-12-11T08:11:10.274Z,18.65
2022-12-11T08:13:37.463Z,22.38
2022-12-11T08:16:09.087Z,21.42
2022-12-11T08:18:36.617Z,20.55
2022-12-11T08:21:15.472Z,19.65
2022-12-11T08:23:42.530Z,20.05
2022-12-11T08:26:11.936Z,20.73
2022-12-11T08:28:38.709Z,20.88
2022-12-11T08:31:07.692Z,20.77
2022-12-11T08:33:36.392Z,20.77
2022-12-11T08:36:04.895Z,21.20
2022-12-11T08:38:31.687Z,22.15
2022-12-11T08:40:58.427Z,21.77
2022-12-11T08:43:25.485Z,20.70
2022-12-11T08:45:52.255Z,22.30
2022-12-11T08:48:18.985Z,19.95
2022-12-11T08:50:45.731Z,20.10
2022-12-11T08:53:12.581Z,20.75
2022-12-11T08:55:39.435Z,19.30
2022-12-11T08:58:06.147Z,19.48
2022-12-11T09:00:32.873Z,19.42
2022-12-11T09:02:59.601Z,17.05
2022-12-11T09:05:29.014Z,18.40
2022-12-11T09:07:55.752Z,17.17
2022-12-11T09:10:22.515Z,16.55
2022-12-11T09:12:49.275Z,15.65
2022-12-11T09:15:17.498Z,17.92
2022-12-11T09:17:44.246Z,17.70
2022-12-11T09:20:11.391Z,16.85
2022-12-11T09:22:38.585Z,16.52
2022-12-11T09:25:05.831Z,17.55
2022-12-11T09:27:34.133Z,15.57
2022-12-11T09:30:03.217Z,18.30
2022-12-11T09:32:30.430Z,16.08
2022-12-11T09:34:57.048Z,15.13
2022-12-11T09:37:23.808Z,14.85
2022-12-11T09:39:50.749Z,15.52
2022-12-11T09:42:41.959Z,15.27
2022-12-11T09:45:13.806Z,14.15
2022-12-11T09:47:43.096Z,13.73
2022-12-11T09:50:09.820Z,13.88
2022-12-11T09:52:59.933Z,13.45
2022-12-11T09:55:32.572Z,13.43
2022-12-11T09:58:14.349Z,13.57
2022-12-11T10:00:52.145Z,13.57
2022-12-11T10:03:32.815Z,13.00
2022-12-11T10:06:04.211Z,13.10
2022-12-11T10:08:57.057Z,13.13
2022-12-11T10:11:56.897Z,12.50
2022-12-11T10:14:35.874Z,13.90
2022-12-11T10:17:16.121Z,12.65
2022-12-11T10:19:43.090Z,13.95
2022-12-11T10:22:21.428Z,12.63
2022-12-11T10:25:12.534Z,12.55
2022-12-11T10:30:19.247Z,11.90
2022-12-11T10:33:09.257Z,13.13
2022-12-11T10:35:40.616Z,12.80
2022-12-11T10:38:13.275Z,13.90
2022-12-11T10:40:45.379Z,13.75
2022-12-11T10:43:12.473Z,14.57
2022-12-11T10:45:39.729Z,14.65
2022-12-11T10:48:10.827Z,14.50
2022-12-11T10:50:38.035Z,14.73
2022-12-11T10:53:05.429Z,14.48
2022-12-11T10:55:43.895Z,12.98
2022-12-11T10:58:20.393Z,15.75
2022-12-11T11:01:10.000Z,14.30
2022-12-11T11:03:52.769Z,14.75
2022-12-11T11:06:21.056Z,16.50
2022-12-11T11:08:50.494Z,15.82
2022-12-11T11:11:33.839Z,15.40
2022-12-11T11:14:20.945Z,15.63
2022-12-11T11:16:49.872Z,16.95
2022-12-11T11:19:25.392Z,18.35
2022-12-11T11:22:13.216Z,15.52
2022-12-11T11:24:43.479Z,16.48
2022-12-11T11:27:27.979Z,16.60
2022-12-11T11:29:58.351Z,17.13
2022-12-11T11:32:32.609Z,17.15
2022-12-11T11:35:15.814Z,18.33
2022-12-11T11:37:46.303Z,17.45
2022-12-11T11:40:33.712Z,18.70
2022-12-11T11:43:15.329Z,18.52
2022-12-11T11:45:59.213Z,17.55
2022-12-11T11:48:44.574Z,16.75
2022-12-11T11:51:24.552Z,17.73
2022-12-11T11:53:53.929Z,18.10
2022-12-11T11:56:27.899Z,17.92
2022-12-11T11:59:19.430Z,16.50
2022-12-11T12:01:46.139Z,16.30
2022-12-11T12:04:12.943Z,16.52
2022-12-11T12:06:57.881Z,15.43
2022-12-11T12:09:43.519Z,16.77
2022-12-11T12:12:41.074Z,16.08
2022-12-11T12:15:30.608Z,15.98
2022-12-11T12:18:13.258Z,16.73
2022-12-11T12:20:57.967Z,18.35
2022-12-11T12:23:46.241Z,15.18
2022-12-11T12:26:29.086Z,16.33
2022-12-11T12:29:06.926Z,17.63
2022-12-11T12:32:38.252Z,16.05
2022-12-11T12:35:10.740Z,16.73
2022-12-11T12:37:59.111Z,18.70
2022-12-11T12:41:03.406Z,18.58
2022-12-11T12:43:30.161Z,17.23
2022-12-11T12:46:19.994Z,16.88
2022-12-11T12:48:46.809Z,17.00
2022-12-11T12:51:15.214Z,16.25
2022-12-11T12:53:56.354Z,17.08
2022-12-11T12:58:49.901Z,17.40
2022-12-11T13:01:24.598Z,16.98
2022-12-11T13:04:08.662Z,16.30
2022-12-11T13:06:44.619Z,17.45
2022-12-11T13:09:25.232Z,17.20
2022-12-11T13:11:57.687Z,18.25
2022-12-11T13:14:32.513Z,17.73
2022-12-11T13:17:24.554Z,17.75
2022-12-11T13:20:10.024Z,17.23
2022-12-11T13:22:47.859Z,18.27
2022-12-11T13:25:27.814Z,17.60
2022-12-11T13:28:06.097Z,19.20
2022-12-11T13:30:33.033Z,18.25
2022-12-11T13:33:08.013Z,19.55
2022-12-11T13:35:35.440Z,17.90
2022-12-11T13:38:08.230Z,19.55
2022-12-11T13:40:43.238Z,18.05
2022-12-11T13:43:18.630Z,18.17
2022-12-11T13:45:54.417Z,18.10
2022-12-11T13:49:00.726Z,19.05
2022-12-11T13:51:29.934Z,18.35
2022-12-11T13:54:17.769Z,20.27
2022-12-11T13:57:06.055Z,18.50
2022-12-11T13:59:38.867Z,19.35
2022-12-11T14:02:33.161Z,19.98
2022-12-11T14:05:08.765Z,19.27
2022-12-11T14:07:38.955Z,18.95
2022-12-11T14:10:27.550Z,21.45
2022-12-11T14:13:01.616Z,20.85
2022-12-11T14:15:29.540Z,20.13
2022-12-11T14:17:56.781Z,20.10
2022-12-11T14:20:32.304Z,18.83
2022-12-11T14:23:20.105Z,20.25
2022-12-11T14:26:04.707Z,18.90
2022-12-11T14:28:37.726Z,19.42
2022-12-11T14:31:05.981Z,18.63
2022-12-11T14:33:35.987Z,18.30
2022-12-11T14:36:03.349Z,19.35
2022-12-11T14:38:40.301Z,18.88
2022-12-11T14:41:14.155Z,17.65
2022-12-11T14:43:51.520Z,17.02
2022-12-11T14:46:22.201Z,19.27
2022-12-11T14:49:01.223Z,18.10
2022-12-11T14:51:30.318Z,17.67
2022-12-11T14:53:57.435Z,18.40
2022-12-11T14:56:27.735Z,18.63
2022-12-11T14:58:55.962Z,17.50
2022-12-11T15:01:30.669Z,18.02
2022-12-11T15:04:03.592Z,18.23
2022-12-11T15:06:44.361Z,17.13
2022-12-11T15:09:33.661Z,17.20
2022-12-11T15:12:16.218Z,16.83
2022-12-11T15:14:57.402Z,18.33
2022-12-11T15:17:25.604Z,19.13
2022-12-11T15:20:04.460Z,20.13
2022-12-11T15:22:32.154Z,20.42
2022-12-11T15:24:59.812Z,19.80
2022-12-11T15:27:49.497Z,18.83
2022-12-11T15:30:28.479Z,18.48
2022-12-11T15:33:26.531Z,17.55
2022-12-11T15:36:04.876Z,21.63
2022-12-11T15:38:40.637Z,20.70
2022-12-11T15:41:13.636Z,14.10
2022-12-11T15:43:40.452Z,13.40
2022-12-11T15:46:07.417Z,13.50
2022-12-11T15:48:34.444Z,12.73
2022-12-11T15:51:01.150Z,12.27
2022-12-11T15:53:27.830Z,12.60
2022-12-11T15:55:54.669Z,12.68
2022-12-11T15:58:23.256Z,13.30
2022-12-11T16:00:50.492Z,13.30
2022-12-11T16:03:19.064Z,18.10
2022-12-11T16:05:45.948Z,16.73
2022-12-11T16:08:17.134Z,14.20
2022-12-11T16:10:45.015Z,13.43
2022-12-11T16:13:12.862Z,14.15
2022-12-11T16:15:42.054Z,13.43
2022-12-11T16:18:11.852Z,14.15
2022-12-11T16:20:40.228Z,13.55
2022-12-11T16:23:07.350Z,14.10
2022-12-11T16:25:34.425Z,13.38
2022-12-11T16:28:01.561Z,14.18
2022-12-11T16:30:29.591Z,12.80
2022-12-11T16:32:56.489Z,14.82
2022-12-11T16:35:23.458Z,14.70
2022-12-11T16:37:54.723Z,13.90
2022-12-11T16:40:22.113Z,16.95
2022-12-11T16:42:52.079Z,13.40
2022-12-11T16:45:21.106Z,14.57
2022-12-11T16:47:47.994Z,12.75
2022-12-11T16:50:16.403Z,14.95
2022-12-11T16:52:43.961Z,15.77
2022-12-11T16:55:12.235Z,15.27
2022-12-11T16:57:39.273Z,14.43
2022-12-11T17:00:08.832Z,15.40
2022-12-11T17:02:36.542Z,14.57
2022-12-11T17:05:03.483Z,16.77
2022-12-11T17:07:32.002Z,16.58
2022-12-11T17:09:58.832Z,14.93
2022-12-11T17:12:27.952Z,16.20
2022-12-11T17:14:55.996Z,14.95
2022-12-11T17:17:22.858Z,15.32
2022-12-11T17:19:49.608Z,13.48
2022-12-11T17:22:16.422Z,14.90
2022-12-11T17:24:43.143Z,14.18
2022-12-11T17:27:09.817Z,14.13
2022-12-11T17:29:36.488Z,14.30
2022-12-11T17:32:03.334Z,14.32
2022-12-11T17:34:36.050Z,14.02
2022-12-11T17:37:04.710Z,13.82
2022-12-11T17:39:31.606Z,14.43
2022-12-11T17:41:58.385Z,15.07
2022-12-11T17:44:26.865Z,15.35
2022-12-11T17:46:53.712Z,15.57
2022-12-11T17:49:20.503Z,15.45
2022-12-11T17:51:48.019Z,16.63
2022-12-11T17:54:14.950Z,16.80
2022-12-11T17:56:41.648Z,17.08
2022-12-11T17:59:08.451Z,17.73
2022-12-11T18:01:36.367Z,17.60
2022-12-11T18:04:03.900Z,16.27
2022-12-11T18:06:30.900Z,16.58
2022-12-11T18:08:59.772Z,16.90
2022-12-11T18:11:26.626Z,15.10
2022-12-11T18:13:53.552Z,14.73
2022-12-11T18:16:30.563Z,15.80
2022-12-11T18:18:57.309Z,15.40
2022-12-11T18:21:27.896Z,16.25
2022-12-11T18:23:55.275Z,15.60
2022-12-11T18:26:22.410Z,16.80
2022-12-11T18:28:50.534Z,15.23
2022-12-11T18:31:19.661Z,15.98
2022-12-11T18:33:47.075Z,15.43
2022-12-11T18:36:15.237Z,16.15
2022-12-11T18:38:43.116Z,16.20
2022-12-11T18:41:12.225Z,15.63
2022-12-11T18:43:40.343Z,15.98
2022-12-11T18:46:15.209Z,16.23
2022-12-11T18:48:43.008Z,16.05
2022-12-11T18:51:13.704Z,16.77
2022-12-11T18:53:43.265Z,16.05
2022-12-11T18:56:13.192Z,15.57
2022-12-11T18:58:40.291Z,15.23
2022-12-11T19:01:12.554Z,15.40
2022-12-11T19:03:39.718Z,17.02
2022-12-11T19:06:08.795Z,14.63
2022-12-11T19:08:35.554Z,14.95
2022-12-11T19:11:02.457Z,17.15
2022-12-11T19:13:29.255Z,16.73
2022-12-11T19:15:56.039Z,16.13
2022-12-11T19:18:22.831Z,16.63
2022-12-11T19:20:55.635Z,17.58
2022-12-11T19:23:31.764Z,18.02
2022-12-11T19:25:58.469Z,18.08
2022-12-11T19:28:27.444Z,17.25
2022-12-11T19:30:54.143Z,18.33
2022-12-11T19:33:22.289Z,17.10
2022-12-11T19:35:48.906Z,18.25
2022-12-11T19:38:15.746Z,17.67
2022-12-11T19:40:44.251Z,17.15
2022-12-11T19:43:11.374Z,19.88
2022-12-11T19:45:38.508Z,18.73
2022-12-11T19:48:05.691Z,17.75
2022-12-11T19:50:35.256Z,19.17
2022-12-11T19:53:01.985Z,17.95
2022-12-11T19:55:28.875Z,19.45
2022-12-11T19:57:55.944Z,19.92
2022-12-11T20:00:24.898Z,19.55
2022-12-11T20:02:51.745Z,18.67
2022-12-11T20:05:18.532Z,18.55
2022-12-11T20:07:45.925Z,18.05
2022-12-11T20:10:12.805Z,18.65
2022-12-11T20:12:39.487Z,17.90
2022-12-11T20:15:06.541Z,18.73
2022-12-11T20:17:33.509Z,18.08
2022-12-11T20:20:00.502Z,19.45
2022-12-11T20:22:27.350Z,17.83
2022-12-11T20:24:54.027Z,17.83
2022-12-11T20:27:20.866Z,17.77
2022-12-11T20:29:47.622Z,16.95
2022-12-11T20:32:14.453Z,18.95
2022-12-11T20:34:41.276Z,17.77
2022-12-11T20:37:07.955Z,19.45
2022-12-11T20:39:35.623Z,19.08
2022-12-11T20:42:04.830Z,19.20
2022-12-11T20:44:32.060Z,19.80
2022-12-11T20:46:58.771Z,18.85
2022-12-11T20:49:26.307Z,19.92
2022-12-11T20:51:53.139Z,19.50
2022-12-11T20:54:19.822Z,18.75
2022-12-11T20:56:46.519Z,18.20
2022-12-11T20:59:13.368Z,20.40
2022-12-11T21:01:40.412Z,20.13
2022-12-11T21:04:07.767Z,20.20
2022-12-11T21:06:37.069Z,20.40
2022-12-11T21:09:07.559Z,20.77
2022-12-11T21:11:37.076Z,19.58
2022-12-11T21:14:04.548Z,19.75
2022-12-11T21:16:32.187Z,21.00
2022-12-11T21:18:59.193Z,20.63
2022-12-11T21:21:26.328Z,21.17
2022-12-11T21:23:53.127Z,21.52
2022-12-11T21:26:20.094Z,21.13
2022-12-11T21:28:46.822Z,21.13
2022-12-11T21:31:16.278Z,21.45
2022-12-11T21:33:43.107Z,21.23
2022-12-11T21:36:13.610Z,21.88
2022-12-11T21:38:41.668Z,22.52
2022-12-11T21:41:13.672Z,19.75
2022-12-11T21:44:14.277Z,21.73
2022-12-11T21:46:29.303Z,21.88
2022-12-11T21:48:56.085Z,20.88
2022-12-11T21:51:36.885Z,21.45
2022-12-11T21:54:06.573Z,21.42
2022-12-11T21:56:34.027Z,21.50
2022-12-11T21:59:01.706Z,23.63
2022-12-11T22:01:34.331Z,23.05
2022-12-11T22:04:01.205Z,23.30
2022-12-11T22:06:28.488Z,22.88
2022-12-11T22:08:55.200Z,22.13
2022-12-11T22:11:25.018Z,21.27
2022-12-11T22:13:52.399Z,21.38
2022-12-11T22:16:20.111Z,22.65
2022-12-11T22:18:46.922Z,21.48
2022-12-11T22:21:14.054Z,22.58
2022-12-11T22:23:41.931Z,22.48
2022-12-11T22:26:11.036Z,22.05
2022-12-11T22:28:37.735Z,21.20
2022-12-11T22:31:04.726Z,21.58
2022-12-11T22:33:31.486Z,22.65
2022-12-11T22:35:59.465Z,22.08
2022-12-11T22:38:26.524Z,22.05
2022-12-11T22:40:54.067Z,22.02
2022-12-11T22:43:21.675Z,22.27
2022-12-11T22:45:49.133Z,22.95
2022-12-11T22:48:15.833Z,22.08
2022-12-11T22:50:42.816Z,22.40
2022-12-11T22:53:12.062Z,23.38
2022-12-11T22:55:40.385Z,22.27
2022-12-11T22:58:07.375Z,22.15
2022-12-11T23:00:34.584Z,23.63
2022-12-11T23:03:02.198Z,23.65
2022-12-11T23:05:29.365Z,23.35
2022-12-11T23:07:56.120Z,23.45
2022-12-11T23:10:22.897Z,23.17
2022-12-11T23:12:49.613Z,25.60
2022-12-11T23:15:16.548Z,24.33
2022-12-11T23:17:43.350Z,23.98
2022-12-11T23:20:10.814Z,24.13
2022-12-11T23:22:37.493Z,23.45
2022-12-11T23:25:04.533Z,25.30
2022-12-11T23:27:33.607Z,23.33
2022-12-11T23:30:00.307Z,25.23
2022-12-11T23:32:27.479Z,24.67
2022-12-11T23:34:54.212Z,24.77
2022-12-11T23:37:20.884Z,23.55
2022-12-11T23:39:47.608Z,23.52
2022-12-11T23:42:14.360Z,23.25
2022-12-11T23:44:41.478Z,24.75
2022-12-11T23:47:08.179Z,24.15
2022-12-11T23:49:35.721Z,21.77
2022-12-11T23:52:02.647Z,23.60
2022-12-11T23:54:30.630Z,23.17
2022-12-11T23:56:57.904Z,22.77
2022-12-11T23:59:24.558Z,23.45
